createdAt,value
2018-02-07T00:00:25.597Z,-1.20
2018-02-07T00:02:54.673Z,-1.10
2018-02-07T00:05:24.065Z,-1.00
2018-02-07T00:07:52.383Z,-1.10
2018-02-07T00:10:20.672Z,-1.10
2018-02-07T00:12:48.996Z,-1.10
2018-02-07T00:15:17.288Z,-1.20
2018-02-07T00:17:45.672Z,-1.20
2018-02-07T00:20:14.760Z,-1.20
2018-02-07T00:22:43.088Z,-1.30
2018-02-07T00:25:12.168Z,-1.10
2018-02-07T00:27:41.380Z,-1.20
2018-02-07T00:30:09.666Z,-1.20
2018-02-07T00:32:39.041Z,-1.20
2018-02-07T00:35:07.408Z,-1.30
2018-02-07T00:37:35.919Z,-1.20
2018-02-07T00:40:04.268Z,-1.20
2018-02-07T00:42:33.705Z,-1.30
2018-02-07T00:45:01.997Z,-1.30
2018-02-07T00:47:30.317Z,-1.30
2018-02-07T00:49:58.667Z,-1.30
2018-02-07T00:52:26.977Z,-1.30
2018-02-07T00:54:55.301Z,-1.30
2018-02-07T00:57:23.599Z,-1.30
2018-02-07T00:59:51.928Z,-1.30
2018-02-07T01:02:20.983Z,-1.40
2018-02-07T01:04:49.305Z,-1.50
2018-02-07T01:07:18.367Z,-1.50
2018-02-07T01:09:46.684Z,-1.50
2018-02-07T01:12:15.014Z,-1.50
2018-02-07T01:14:43.329Z,-1.50
2018-02-07T01:17:11.659Z,-1.50
2018-02-07T01:19:40.029Z,-1.60
2018-02-07T01:22:08.348Z,-1.60
2018-02-07T01:24:36.644Z,-1.60
2018-02-07T01:27:04.964Z,-1.60
2018-02-07T01:29:33.253Z,-1.60
2018-02-07T01:32:01.598Z,-1.60
2018-02-07T01:34:29.953Z,-1.60
2018-02-07T01:36:58.312Z,-1.60
2018-02-07T01:39:26.613Z,-1.70
2018-02-07T01:41:54.915Z,-1.70
2018-02-07T01:44:23.235Z,-1.70
2018-02-07T01:46:51.525Z,-1.70
2018-02-07T01:49:19.843Z,-1.70
2018-02-07T01:51:48.167Z,-1.70
2018-02-07T01:54:16.508Z,-1.80
2018-02-07T01:56:44.889Z,-1.80
2018-02-07T01:59:13.217Z,-1.80
2018-02-07T02:01:42.317Z,-1.80
2018-02-07T02:04:11.391Z,-1.80
2018-02-07T02:06:39.716Z,-1.80
2018-02-07T02:09:08.796Z,-1.80
2018-02-07T02:11:37.276Z,-1.80
2018-02-07T02:14:05.602Z,-1.80
2018-02-07T02:16:33.923Z,-1.80
2018-02-07T02:19:02.253Z,-1.80
2018-02-07T02:21:30.589Z,-1.80
2018-02-07T02:23:59.745Z,-1.80
2018-02-07T02:26:28.040Z,-1.90
2018-02-07T02:28:56.360Z,-1.80
2018-02-07T02:31:24.663Z,-1.80
2018-02-07T02:33:53.773Z,-1.80
2018-02-07T02:36:41.380Z,-1.80
2018-02-07T02:39:09.888Z,-1.90
2018-02-07T02:41:38.179Z,-1.80
2018-02-07T02:44:06.479Z,-1.90
2018-02-07T02:46:34.799Z,-1.80
2018-02-07T02:49:03.097Z,-1.90
2018-02-07T02:51:31.416Z,-1.90
2018-02-07T02:53:59.704Z,-1.90
2018-02-07T02:56:28.024Z,-1.90
2018-02-07T02:58:57.114Z,-2.00
2018-02-07T03:01:25.708Z,-2.00
2018-02-07T03:03:53.992Z,-1.90
2018-02-07T03:06:22.283Z,-1.90
2018-02-07T03:08:50.603Z,-1.90
2018-02-07T03:11:18.891Z,-1.90
2018-02-07T03:13:48.275Z,-1.90
2018-02-07T03:16:16.561Z,-1.90
2018-02-07T03:18:44.860Z,-1.90
2018-02-07T03:21:13.183Z,-1.90
2018-02-07T03:23:42.244Z,-1.90
2018-02-07T03:26:10.595Z,-1.90
2018-02-07T03:28:39.672Z,-1.90
2018-02-07T03:31:07.992Z,-1.90
2018-02-07T03:33:37.053Z,-1.90
2018-02-07T03:36:05.387Z,-1.90
2018-02-07T03:38:34.443Z,-1.80
2018-02-07T03:41:02.872Z,-1.90
2018-02-07T03:43:31.159Z,-1.90
2018-02-07T03:45:59.477Z,-1.80
2018-02-07T03:48:27.804Z,-1.90
2018-02-07T03:50:56.123Z,-1.90
2018-02-07T03:53:24.461Z,-1.90
2018-02-07T03:55:52.792Z,-2.00
2018-02-07T03:58:21.136Z,-2.00
2018-02-07T04:00:49.424Z,-2.00
2018-02-07T04:03:17.957Z,-2.00
2018-02-07T04:05:46.298Z,-2.00
2018-02-07T04:08:15.357Z,-2.10
2018-02-07T04:10:43.701Z,-2.10
2018-02-07T04:13:11.997Z,-2.00
2018-02-07T04:15:40.464Z,-2.00
2018-02-07T04:18:09.530Z,-2.00
2018-02-07T04:20:37.824Z,-2.10
2018-02-07T04:23:06.160Z,-2.00
2018-02-07T04:25:35.237Z,-2.10
2018-02-07T04:28:03.658Z,-2.10
2018-02-07T04:30:32.723Z,-2.10
2018-02-07T04:33:01.104Z,-2.10
2018-02-07T04:35:29.403Z,-2.10
2018-02-07T04:37:57.703Z,-2.20
2018-02-07T04:40:26.032Z,-2.20
2018-02-07T04:42:54.414Z,-2.10
2018-02-07T04:45:22.838Z,-2.10
2018-02-07T04:47:51.154Z,-2.10
2018-02-07T04:50:19.448Z,-2.10
2018-02-07T04:52:47.776Z,-2.10
2018-02-07T04:55:16.836Z,-2.20
2018-02-07T04:57:45.164Z,-2.30
2018-02-07T05:00:14.216Z,-2.30
2018-02-07T05:02:42.505Z,-2.40
2018-02-07T05:05:10.902Z,-2.30
2018-02-07T05:07:39.207Z,-2.30
2018-02-07T05:10:07.804Z,-2.40
2018-02-07T05:12:36.093Z,-2.40
2018-02-07T05:15:04.385Z,-2.40
2018-02-07T05:17:32.976Z,-2.40
2018-02-07T05:20:01.264Z,-2.40
2018-02-07T05:22:29.561Z,-2.40
2018-02-07T05:24:57.879Z,-2.50
2018-02-07T05:27:26.968Z,-2.50
2018-02-07T05:29:56.103Z,-2.50
2018-02-07T05:32:25.161Z,-2.50
2018-02-07T05:34:53.856Z,-2.50
2018-02-07T05:37:22.173Z,-2.50
2018-02-07T05:39:50.491Z,-2.50
2018-02-07T05:42:19.573Z,-2.50
2018-02-07T05:44:47.877Z,-2.50
2018-02-07T05:47:16.979Z,-2.50
2018-02-07T05:49:45.281Z,-2.60
2018-02-07T05:52:14.341Z,-2.50
2018-02-07T05:54:42.663Z,-2.50
2018-02-07T05:57:10.972Z,-2.50
2018-02-07T05:59:40.060Z,-2.50
2018-02-07T06:02:08.456Z,-2.50
2018-02-07T06:04:36.755Z,-2.50
2018-02-07T06:07:05.816Z,-2.50
2018-02-07T06:09:34.300Z,-2.50
2018-02-07T06:12:02.596Z,-2.50
2018-02-07T06:14:30.961Z,-2.50
2018-02-07T06:16:59.308Z,-2.50
2018-02-07T06:19:27.599Z,-2.50
2018-02-07T06:21:55.961Z,-2.50
2018-02-07T06:24:24.319Z,-2.50
2018-02-07T06:26:52.625Z,-2.50
2018-02-07T06:29:20.996Z,-2.50
2018-02-07T06:31:49.319Z,-2.60
2018-02-07T06:34:17.660Z,-2.60
2018-02-07T06:36:46.737Z,-2.60
2018-02-07T06:39:15.220Z,-2.70
2018-02-07T06:41:43.512Z,-2.60
2018-02-07T06:44:13.310Z,-2.60
2018-02-07T06:46:41.771Z,-2.70
2018-02-07T06:49:10.840Z,-2.50
2018-02-07T06:51:39.141Z,-2.60
2018-02-07T06:54:07.515Z,-2.50
2018-02-07T06:56:35.842Z,-2.50
2018-02-07T06:59:04.191Z,-2.40
2018-02-07T07:01:32.494Z,-2.40
2018-02-07T07:04:01.167Z,-2.30
2018-02-07T07:06:29.455Z,-2.30
2018-02-07T07:08:57.972Z,-2.30
2018-02-07T07:11:26.325Z,-2.30
2018-02-07T07:13:55.391Z,-2.30
2018-02-07T07:16:23.705Z,-2.40
2018-02-07T07:18:52.796Z,-2.20
2018-02-07T07:21:21.164Z,-2.30
2018-02-07T07:23:49.497Z,-2.20
2018-02-07T07:26:18.611Z,-2.10
2018-02-07T07:28:46.938Z,-2.10
2018-02-07T07:31:15.286Z,-2.00
2018-02-07T07:33:44.398Z,-1.80
2018-02-07T07:36:13.460Z,-1.70
2018-02-07T07:38:41.805Z,-1.80
2018-02-07T07:41:10.163Z,-1.50
2018-02-07T07:43:38.465Z,-1.30
2018-02-07T07:46:07.681Z,-0.80
2018-02-07T07:48:36.750Z,-0.70
2018-02-07T07:51:05.052Z,-0.70
2018-02-07T07:53:33.388Z,-0.60
2018-02-07T07:56:01.680Z,-0.50
2018-02-07T07:58:29.971Z,-0.40
2018-02-07T08:00:58.304Z,-0.10
2018-02-07T08:03:26.594Z,0.10
2018-02-07T08:05:54.934Z,0.30
2018-02-07T08:08:23.234Z,0.40
2018-02-07T08:10:51.573Z,0.80
2018-02-07T08:13:19.868Z,1.00
2018-02-07T08:15:48.445Z,1.10
2018-02-07T08:18:16.737Z,1.20
2018-02-07T08:20:45.062Z,1.30
2018-02-07T08:23:14.145Z,1.30
2018-02-07T08:25:42.487Z,1.20
2018-02-07T08:28:10.776Z,1.20
2018-02-07T08:30:39.063Z,1.40
2018-02-07T08:33:07.412Z,1.60
2018-02-07T08:35:35.770Z,1.80
2018-02-07T08:38:04.056Z,2.00
2018-02-07T08:40:32.404Z,2.10
2018-02-07T08:43:01.533Z,2.30
2018-02-07T08:45:29.836Z,2.30
2018-02-07T08:47:58.169Z,2.40
2018-02-07T08:50:26.466Z,2.70
2018-02-07T08:52:54.792Z,3.00
2018-02-07T08:55:23.084Z,3.20
2018-02-07T08:57:51.384Z,3.40
2018-02-07T09:00:19.824Z,3.40
2018-02-07T09:02:48.924Z,3.60
2018-02-07T09:05:17.219Z,3.60
2018-02-07T09:07:45.536Z,3.60
2018-02-07T09:10:13.833Z,3.50
2018-02-07T09:12:42.131Z,3.40
2018-02-07T09:15:10.474Z,3.40
2018-02-07T09:17:38.804Z,3.50
2018-02-07T09:20:07.146Z,2.90
2018-02-07T09:22:35.451Z,2.50
2018-02-07T09:25:03.769Z,2.30
2018-02-07T09:27:32.080Z,2.30
2018-02-07T09:30:00.388Z,2.30
2018-02-07T09:32:28.741Z,2.30
2018-02-07T09:34:57.063Z,2.20
2018-02-07T09:37:25.670Z,2.20
2018-02-07T09:39:53.960Z,2.40
2018-02-07T09:42:22.248Z,2.60
2018-02-07T09:44:50.676Z,2.70
2018-02-07T09:47:19.767Z,3.50
2018-02-07T09:49:48.091Z,3.50
2018-02-07T09:52:16.728Z,4.10
2018-02-07T09:54:45.025Z,4.60
2018-02-07T09:57:13.314Z,5.00
2018-02-07T09:59:41.649Z,5.20
2018-02-07T10:02:10.737Z,5.10
2018-02-07T10:04:39.088Z,5.10
2018-02-07T10:07:07.371Z,5.20
2018-02-07T10:09:35.652Z,5.50
2018-02-07T10:12:04.008Z,5.70
2018-02-07T10:14:33.087Z,6.10
2018-02-07T10:17:01.385Z,6.10
2018-02-07T10:19:29.722Z,6.30
2018-02-07T10:21:58.019Z,6.60
2018-02-07T10:24:26.428Z,6.40
2018-02-07T10:26:55.467Z,6.40
2018-02-07T10:29:23.789Z,6.30
2018-02-07T10:31:52.861Z,6.30
2018-02-07T10:34:21.143Z,6.30
2018-02-07T10:36:49.465Z,6.60
2018-02-07T10:39:18.540Z,7.10
2018-02-07T10:41:46.831Z,7.10
2018-02-07T10:44:15.153Z,7.40
2018-02-07T10:46:44.241Z,6.70
2018-02-07T10:49:12.564Z,6.70
2018-02-07T10:51:40.879Z,6.90
2018-02-07T10:54:09.167Z,7.40
2018-02-07T10:56:37.767Z,8.00
2018-02-07T10:59:06.060Z,8.50
2018-02-07T11:01:34.355Z,8.50
2018-02-07T11:04:02.689Z,9.10
2018-02-07T11:06:31.764Z,9.10
2018-02-07T11:09:00.093Z,9.00
2018-02-07T11:11:29.154Z,9.30
2018-02-07T11:13:57.485Z,9.30
2018-02-07T11:16:26.615Z,9.80
2018-02-07T11:18:54.913Z,9.80
2018-02-07T11:21:23.544Z,9.80
2018-02-07T11:23:51.845Z,10.00
2018-02-07T11:26:20.183Z,9.70
2018-02-07T11:28:48.556Z,9.30
2018-02-07T11:31:17.709Z,9.10
2018-02-07T11:33:46.105Z,9.10
2018-02-07T11:36:14.455Z,9.30
2018-02-07T11:38:42.781Z,8.60
2018-02-07T11:41:11.119Z,7.80
2018-02-07T11:43:40.185Z,7.00
2018-02-07T11:46:08.477Z,6.90
2018-02-07T11:48:36.787Z,6.80
2018-02-07T11:51:05.150Z,7.10
2018-02-07T11:53:33.468Z,7.20
2018-02-07T11:56:01.760Z,7.30
2018-02-07T11:58:30.092Z,7.30
2018-02-07T12:00:58.402Z,7.20
2018-02-07T12:03:26.723Z,7.00
2018-02-07T12:05:55.024Z,6.80
2018-02-07T12:08:23.385Z,6.60
2018-02-07T12:10:51.683Z,6.40
2018-02-07T12:13:20.368Z,6.10
2018-02-07T12:15:48.692Z,5.70
2018-02-07T12:18:16.981Z,5.50
2018-02-07T12:20:45.300Z,5.30
2018-02-07T12:23:13.626Z,5.20
2018-02-07T12:25:41.943Z,5.00
2018-02-07T12:28:10.305Z,5.00
2018-02-07T12:30:38.660Z,5.10
2018-02-07T12:33:06.996Z,5.40
2018-02-07T12:35:35.280Z,5.80
2018-02-07T12:38:03.595Z,5.90
2018-02-07T12:40:31.909Z,6.40
2018-02-07T12:43:01.051Z,6.60
2018-02-07T12:45:29.369Z,6.60
2018-02-07T12:47:57.673Z,7.00
2018-02-07T12:50:26.068Z,7.20
2018-02-07T12:52:54.361Z,7.30
2018-02-07T12:55:22.686Z,7.50
2018-02-07T12:57:51.751Z,7.90
2018-02-07T13:00:20.045Z,7.90
2018-02-07T13:02:48.356Z,7.80
2018-02-07T13:05:17.436Z,7.50
2018-02-07T13:07:45.791Z,7.50
2018-02-07T13:10:14.101Z,7.20
2018-02-07T13:12:42.445Z,7.30
2018-02-07T13:15:11.660Z,7.60
2018-02-07T13:17:39.961Z,7.60
2018-02-07T13:20:08.283Z,7.70
2018-02-07T13:22:36.605Z,8.10
2018-02-07T13:25:04.931Z,8.20
2018-02-07T13:27:33.216Z,8.30
2018-02-07T13:30:01.557Z,8.20
2018-02-07T13:32:29.870Z,7.90
2018-02-07T13:34:58.156Z,7.90
2018-02-07T13:37:26.476Z,8.00
2018-02-07T13:39:54.821Z,7.60
2018-02-07T13:42:23.148Z,7.40
2018-02-07T13:44:52.202Z,7.20
2018-02-07T13:47:20.879Z,7.10
2018-02-07T13:49:49.909Z,6.90
2018-02-07T13:52:18.216Z,6.90
2018-02-07T13:54:46.540Z,6.70
2018-02-07T13:57:14.848Z,6.50
2018-02-07T13:59:43.180Z,6.10
2018-02-07T14:02:11.545Z,6.00
2018-02-07T14:04:39.863Z,6.00
2018-02-07T14:07:08.170Z,5.90
2018-02-07T14:09:36.487Z,5.80
2018-02-07T14:12:04.807Z,5.70
2018-02-07T14:14:33.135Z,5.60
2018-02-07T14:17:01.486Z,5.40
2018-02-07T14:19:29.824Z,5.40
2018-02-07T14:21:58.108Z,5.40
2018-02-07T14:24:27.208Z,5.30
2018-02-07T14:26:55.502Z,5.30
2018-02-07T14:29:24.176Z,5.20
2018-02-07T14:31:52.480Z,5.00
2018-02-07T14:34:20.769Z,5.00
2018-02-07T14:36:49.093Z,5.00
2018-02-07T14:39:17.376Z,4.90
2018-02-07T14:41:46.459Z,4.90
2018-02-07T14:44:14.752Z,4.80
2018-02-07T14:46:43.085Z,4.90
2018-02-07T14:49:11.459Z,4.90
2018-02-07T14:51:40.523Z,4.70
2018-02-07T14:54:08.875Z,4.60
2018-02-07T14:56:37.941Z,4.50
2018-02-07T14:59:06.259Z,4.50
2018-02-07T15:01:34.557Z,4.40
2018-02-07T15:04:02.892Z,4.30
2018-02-07T15:06:31.222Z,4.20
2018-02-07T15:09:00.320Z,4.20
2018-02-07T15:11:29.419Z,4.10
2018-02-07T15:13:57.708Z,4.10
2018-02-07T15:16:26.045Z,3.90
2018-02-07T15:18:54.340Z,3.90
2018-02-07T15:21:22.754Z,3.80
2018-02-07T15:23:51.046Z,3.70
2018-02-07T15:26:19.336Z,3.60
2018-02-07T15:28:47.647Z,3.70
2018-02-07T15:31:15.955Z,3.50
2018-02-07T15:33:44.317Z,3.40
2018-02-07T15:36:12.628Z,3.30
2018-02-07T15:38:41.726Z,3.20
2018-02-07T15:41:10.009Z,3.20
2018-02-07T15:43:38.334Z,3.20
2018-02-07T15:46:06.647Z,3.10
2018-02-07T15:48:34.980Z,3.00
2018-02-07T15:51:03.279Z,3.00
2018-02-07T15:53:31.601Z,3.00
2018-02-07T15:55:59.937Z,2.90
2018-02-07T15:58:28.261Z,2.90
2018-02-07T16:00:56.589Z,2.80
2018-02-07T16:03:24.925Z,2.70
2018-02-07T16:05:53.213Z,2.70
2018-02-07T16:08:21.554Z,2.70
2018-02-07T16:10:49.872Z,2.70
2018-02-07T16:13:18.189Z,2.70
2018-02-07T16:15:46.517Z,2.60
2018-02-07T16:18:14.805Z,2.60
2018-02-07T16:20:43.141Z,2.60
2018-02-07T16:23:11.470Z,2.50
2018-02-07T16:25:40.536Z,2.50
2018-02-07T16:28:08.931Z,2.50
2018-02-07T16:30:37.270Z,2.50
2018-02-07T16:33:05.593Z,2.40
2018-02-07T16:35:33.939Z,2.40
2018-02-07T16:38:02.989Z,2.40
2018-02-07T16:40:31.306Z,2.30
2018-02-07T16:42:59.624Z,2.30
2018-02-07T16:45:28.733Z,2.30
2018-02-07T16:47:58.533Z,2.20
2018-02-07T16:50:26.846Z,2.20
2018-02-07T16:52:56.050Z,2.20
2018-02-07T16:55:24.376Z,2.20
2018-02-07T16:57:52.661Z,2.20
2018-02-07T17:00:21.037Z,2.20
2018-02-07T17:02:49.313Z,2.20
2018-02-07T17:05:18.394Z,2.10
2018-02-07T17:07:46.701Z,2.10
2018-02-07T17:10:15.023Z,2.10
2018-02-07T17:12:43.309Z,2.10
2018-02-07T17:15:11.674Z,2.10
2018-02-07T17:17:39.960Z,2.00
2018-02-07T17:20:08.254Z,2.00
2018-02-07T17:22:36.574Z,1.90
2018-02-07T17:25:04.895Z,1.90
2018-02-07T17:27:33.255Z,1.80
2018-02-07T17:30:01.608Z,1.80
2018-02-07T17:32:29.940Z,1.70
2018-02-07T17:34:58.477Z,1.70
2018-02-07T17:37:26.830Z,1.60
2018-02-07T17:39:55.196Z,1.60
2018-02-07T17:42:23.500Z,1.50
2018-02-07T17:44:51.802Z,1.50
2018-02-07T17:47:20.124Z,1.40
2018-02-07T17:49:48.464Z,1.40
2018-02-07T17:52:17.553Z,1.40
2018-02-07T17:54:46.628Z,1.40
2018-02-07T17:57:24.982Z,1.30
2018-02-07T17:59:54.058Z,1.30
2018-02-07T18:02:22.391Z,1.30
2018-02-07T18:04:51.508Z,1.30
2018-02-07T18:07:19.830Z,1.20
2018-02-07T18:09:48.169Z,1.20
2018-02-07T18:12:17.236Z,1.20
2018-02-07T18:14:45.569Z,1.10
2018-02-07T18:17:14.640Z,1.10
2018-02-07T18:19:42.938Z,1.10
2018-02-07T18:22:11.268Z,1.10
2018-02-07T18:24:40.336Z,1.10
2018-02-07T18:27:08.753Z,1.10
2018-02-07T18:29:37.055Z,1.10
2018-02-07T18:32:06.152Z,1.10
2018-02-07T18:34:35.231Z,1.10
2018-02-07T18:37:03.571Z,1.00
2018-02-07T18:39:31.874Z,1.00
2018-02-07T18:42:00.178Z,1.00
2018-02-07T18:44:28.530Z,0.90
2018-02-07T18:46:56.852Z,0.90
2018-02-07T18:49:26.345Z,0.90
2018-02-07T18:51:54.719Z,0.80
2018-02-07T18:54:23.051Z,0.80
2018-02-07T18:56:51.404Z,0.70
2018-02-07T18:59:19.708Z,0.70
2018-02-07T19:01:48.037Z,0.70
2018-02-07T19:04:16.369Z,0.70
2018-02-07T19:06:44.712Z,0.60
2018-02-07T19:09:13.020Z,0.60
2018-02-07T19:11:41.379Z,0.60
2018-02-07T19:14:10.585Z,0.60
2018-02-07T19:16:39.848Z,0.50
2018-02-07T19:19:08.452Z,0.50
2018-02-07T19:21:36.770Z,0.50
2018-02-07T19:24:05.351Z,0.50
2018-02-07T19:26:33.681Z,0.50
2018-02-07T19:29:02.757Z,0.50
2018-02-07T19:31:31.104Z,0.40
2018-02-07T19:33:59.400Z,0.40
2018-02-07T19:36:27.757Z,0.40
2018-02-07T19:38:56.824Z,0.30
2018-02-07T19:41:25.148Z,0.30
2018-02-07T19:43:53.516Z,0.30
2018-02-07T19:46:22.125Z,0.30
2018-02-07T19:48:50.453Z,0.30
2018-02-07T19:51:18.757Z,0.30
2018-02-07T19:53:47.209Z,0.30
2018-02-07T19:56:16.344Z,0.20
2018-02-07T19:58:44.880Z,0.20
2018-02-07T20:01:13.172Z,0.30
2018-02-07T20:03:41.473Z,0.20
2018-02-07T20:06:09.812Z,0.20
2018-02-07T20:08:38.145Z,0.20
2018-02-07T20:11:06.488Z,0.20
2018-02-07T20:13:34.795Z,0.10
2018-02-07T20:16:03.113Z,0.10
2018-02-07T20:18:31.502Z,0.10
2018-02-07T20:20:59.851Z,0.10
2018-02-07T20:23:28.302Z,0.10
2018-02-07T20:25:56.630Z,0.10
2018-02-07T20:28:25.707Z,0.00
2018-02-07T20:30:54.036Z,0.00
2018-02-07T20:33:22.340Z,0.00
2018-02-07T20:35:51.453Z,0.00
2018-02-07T20:38:19.791Z,0.00
2018-02-07T20:40:48.122Z,0.00
2018-02-07T20:43:16.433Z,0.00
2018-02-07T20:45:44.743Z,0.00
2018-02-07T20:48:13.089Z,0.00
2018-02-07T20:50:41.391Z,0.00
2018-02-07T20:53:09.691Z,-0.10
2018-02-07T20:55:38.119Z,-0.10
2018-02-07T20:58:06.429Z,-0.10
2018-02-07T21:00:35.652Z,-0.20
2018-02-07T21:03:04.006Z,-0.20
2018-02-07T21:05:32.314Z,-0.20
2018-02-07T21:08:01.412Z,-0.20
2018-02-07T21:10:29.724Z,-0.30
2018-02-07T21:12:58.896Z,-0.20
2018-02-07T21:15:27.213Z,-0.30
2018-02-07T21:17:55.597Z,-0.30
2018-02-07T21:20:23.983Z,-0.30
2018-02-07T21:22:53.108Z,-0.30
2018-02-07T21:25:22.213Z,-0.40
2018-02-07T21:27:50.585Z,-0.40
2018-02-07T21:30:18.930Z,-0.40
2018-02-07T21:32:47.524Z,-0.50
2018-02-07T21:35:15.853Z,-0.50
2018-02-07T21:37:44.171Z,-0.50
2018-02-07T21:40:12.505Z,-0.50
2018-02-07T21:42:40.844Z,-0.60
2018-02-07T21:45:09.147Z,-0.60
2018-02-07T21:47:38.256Z,-0.60
2018-02-07T21:50:06.655Z,-0.60
2018-02-07T21:52:35.725Z,-0.50
2018-02-07T21:55:04.420Z,-0.50
2018-02-07T21:57:33.550Z,-0.50
2018-02-07T22:00:02.652Z,-0.50
2018-02-07T22:02:30.986Z,-0.50
2018-02-07T22:04:59.288Z,-0.50
2018-02-07T22:07:27.584Z,-0.50
2018-02-07T22:09:55.953Z,-0.50
2018-02-07T22:12:25.159Z,-0.60
2018-02-07T22:14:54.267Z,-0.60
2018-02-07T22:17:23.350Z,-0.60
2018-02-07T22:19:51.712Z,-0.60
2018-02-07T22:22:20.048Z,-0.60
2018-02-07T22:24:49.436Z,-0.60
2018-02-07T22:27:17.760Z,-0.60
2018-02-07T22:29:46.836Z,-0.60
2018-02-07T22:32:15.164Z,-0.70
2018-02-07T22:34:43.465Z,-0.70
2018-02-07T22:37:11.864Z,-0.70
2018-02-07T22:39:40.168Z,-0.70
2018-02-07T22:42:08.527Z,-0.70
2018-02-07T22:44:36.907Z,-0.80
2018-02-07T22:47:06.019Z,-0.70
2018-02-07T22:49:35.112Z,-0.60
2018-02-07T22:52:03.439Z,-0.70
2018-02-07T22:54:31.793Z,-0.60
2018-02-07T22:57:00.094Z,-0.60
2018-02-07T22:59:29.241Z,-0.50
2018-02-07T23:01:58.272Z,-0.40
2018-02-07T23:04:26.631Z,-0.40
2018-02-07T23:06:54.946Z,-0.30
2018-02-07T23:09:23.289Z,-0.30
2018-02-07T23:11:52.406Z,-0.20
2018-02-07T23:14:20.721Z,-0.30
2018-02-07T23:16:49.119Z,-0.20
2018-02-07T23:19:17.428Z,-0.20
2018-02-07T23:21:45.751Z,-0.20
2018-02-07T23:24:14.924Z,-0.10
2018-02-07T23:26:43.513Z,-0.10
2018-02-07T23:29:11.809Z,-0.10
2018-02-07T23:31:40.131Z,-0.10
2018-02-07T23:34:09.243Z,-0.10
2018-02-07T23:36:38.307Z,-0.10
2018-02-07T23:39:06.645Z,-0.10
2018-02-07T23:41:35.893Z,0.00
2018-02-07T23:44:04.188Z,-0.10
2018-02-07T23:46:32.520Z,0.00
2018-02-07T23:49:00.820Z,0.00
2018-02-07T23:51:29.932Z,0.00
2018-02-07T23:53:59.016Z,0.00
2018-02-07T23:56:27.390Z,-0.10
2018-02-07T23:58:55.809Z,0.00
